createdAt,value
2019-05-20T00:02:25.814Z,1.90
2019-05-20T00:04:46.289Z,1.47
2019-05-20T00:07:14.775Z,1.60
2019-05-20T00:09:43.554Z,1.57
2019-05-20T00:12:11.993Z,1.60
2019-05-20T00:14:40.410Z,1.63
2019-05-20T00:17:08.836Z,1.50
2019-05-20T00:19:37.276Z,1.83
2019-05-20T00:22:06.066Z,1.40
2019-05-20T00:24:34.510Z,1.40
2019-05-20T00:27:02.958Z,1.37
2019-05-20T00:29:31.391Z,1.37
2019-05-20T00:32:00.183Z,1.27
2019-05-20T00:34:35.009Z,1.50
2019-05-20T00:36:58.770Z,1.30
2019-05-20T00:39:27.573Z,1.23
2019-05-20T00:41:55.988Z,1.40
2019-05-20T00:44:24.430Z,1.30
2019-05-20T00:46:52.855Z,1.37
2019-05-20T00:49:21.690Z,1.40
2019-05-20T00:51:50.116Z,1.57
2019-05-20T00:54:18.570Z,1.50
2019-05-20T00:56:49.121Z,1.47
2019-05-20T00:59:17.566Z,1.50
2019-05-20T01:01:46.335Z,1.60
2019-05-20T01:04:14.796Z,1.80
2019-05-20T01:06:43.615Z,1.50
2019-05-20T01:09:12.129Z,1.77
2019-05-20T01:11:40.880Z,1.70
2019-05-20T01:14:09.591Z,1.57
2019-05-20T01:16:38.046Z,1.90
2019-05-20T01:19:06.469Z,1.67
2019-05-20T01:21:34.895Z,1.87
2019-05-20T01:24:03.379Z,1.97
2019-05-20T01:26:31.875Z,1.90
2019-05-20T01:29:00.339Z,2.10
2019-05-20T01:31:28.761Z,2.20
2019-05-20T01:33:57.503Z,2.20
2019-05-20T01:36:25.957Z,2.27
2019-05-20T01:38:54.457Z,2.20
2019-05-20T01:41:22.888Z,2.60
2019-05-20T01:43:51.330Z,2.60
2019-05-20T01:46:19.768Z,3.07
2019-05-20T01:48:48.487Z,3.50
2019-05-20T01:51:16.909Z,2.80
2019-05-20T01:53:45.356Z,3.20
2019-05-20T01:56:13.804Z,3.60
2019-05-20T01:58:42.270Z,4.00
2019-05-20T02:01:10.717Z,3.83
2019-05-20T02:03:39.155Z,4.30
2019-05-20T02:06:07.603Z,4.57
2019-05-20T02:08:36.028Z,4.30
2019-05-20T02:11:04.532Z,4.60
2019-05-20T02:13:53.158Z,4.40
2019-05-20T02:16:23.591Z,4.90
2019-05-20T02:18:52.627Z,4.77
2019-05-20T02:21:21.092Z,4.80
2019-05-20T02:23:49.834Z,4.97
2019-05-20T02:26:18.253Z,5.40
2019-05-20T02:28:47.008Z,5.47
2019-05-20T02:31:15.478Z,5.57
2019-05-20T02:33:51.451Z,5.20
2019-05-20T02:36:14.129Z,5.80
2019-05-20T02:38:43.070Z,6.13
2019-05-20T02:41:11.898Z,6.10
2019-05-20T02:43:40.387Z,6.53
2019-05-20T02:46:08.843Z,7.20
2019-05-20T02:48:37.592Z,6.80
2019-05-20T02:51:06.031Z,7.07
2019-05-20T02:53:34.467Z,6.83
2019-05-20T02:56:02.917Z,7.37
2019-05-20T02:58:31.416Z,7.20
2019-05-20T03:00:59.868Z,7.53
2019-05-20T03:03:28.283Z,6.73
2019-05-20T03:05:56.753Z,6.73
2019-05-20T03:08:25.261Z,6.93
2019-05-20T03:10:53.733Z,6.43
2019-05-20T03:13:22.243Z,7.23
2019-05-20T03:15:50.691Z,7.57
2019-05-20T03:18:19.149Z,6.67
2019-05-20T03:20:47.934Z,7.40
2019-05-20T03:23:16.845Z,7.60
2019-05-20T03:25:45.747Z,7.40
2019-05-20T03:28:14.189Z,6.63
2019-05-20T03:30:43.420Z,6.97
2019-05-20T03:33:12.193Z,7.57
2019-05-20T03:35:40.644Z,7.80
2019-05-20T03:38:09.104Z,7.00
2019-05-20T03:40:37.563Z,8.27
2019-05-20T03:43:06.294Z,8.03
2019-05-20T03:45:34.752Z,8.30
2019-05-20T03:48:03.588Z,8.20
2019-05-20T03:50:32.369Z,7.77
2019-05-20T03:53:00.818Z,7.10
2019-05-20T03:55:29.266Z,8.37
2019-05-20T03:57:58.217Z,8.47
2019-05-20T04:00:46.543Z,8.53
2019-05-20T04:03:16.070Z,9.17
2019-05-20T04:05:45.272Z,9.20
2019-05-20T04:08:14.265Z,9.27
2019-05-20T04:10:43.046Z,9.17
2019-05-20T04:13:11.556Z,8.77
2019-05-20T04:15:39.992Z,9.27
2019-05-20T04:18:08.461Z,9.40
2019-05-20T04:20:36.893Z,9.70
2019-05-20T04:23:05.730Z,8.73
2019-05-20T04:25:34.237Z,9.77
2019-05-20T04:28:03.016Z,9.43
2019-05-20T04:30:31.600Z,10.70
2019-05-20T04:33:00.064Z,9.63
2019-05-20T04:35:28.494Z,10.73
2019-05-20T04:37:56.979Z,10.07
2019-05-20T04:40:25.418Z,9.27
2019-05-20T04:42:54.189Z,10.07
2019-05-20T04:45:26.257Z,9.93
2019-05-20T04:47:55.053Z,10.40
2019-05-20T04:50:23.503Z,9.80
2019-05-20T04:52:51.944Z,9.13
2019-05-20T04:55:20.454Z,9.00
2019-05-20T04:57:48.976Z,8.97
2019-05-20T05:00:20.484Z,8.97
2019-05-20T05:02:48.958Z,9.40
2019-05-20T05:05:17.387Z,9.07
2019-05-20T05:07:45.835Z,9.33
2019-05-20T05:10:14.717Z,9.10
2019-05-20T05:12:43.516Z,8.70
2019-05-20T05:15:14.451Z,8.07
2019-05-20T05:17:42.972Z,8.97
2019-05-20T05:20:17.839Z,8.90
2019-05-20T05:22:41.835Z,8.80
2019-05-20T05:25:10.830Z,9.00
2019-05-20T05:27:39.282Z,9.03
2019-05-20T05:30:08.516Z,8.27
2019-05-20T05:32:43.298Z,8.73
2019-05-20T05:35:14.700Z,9.67
2019-05-20T05:37:43.241Z,9.40
2019-05-20T05:40:12.546Z,9.07
2019-05-20T05:42:41.112Z,9.10
2019-05-20T05:45:10.862Z,9.37
2019-05-20T05:47:39.361Z,9.77
2019-05-20T05:50:09.456Z,8.93
2019-05-20T05:52:37.929Z,9.20
2019-05-20T05:55:06.481Z,10.23
2019-05-20T05:57:34.938Z,8.93
2019-05-20T06:00:08.399Z,9.03
2019-05-20T06:02:36.844Z,9.67
2019-05-20T06:05:05.872Z,9.40
2019-05-20T06:07:34.331Z,9.73
2019-05-20T06:10:03.155Z,10.50
2019-05-20T06:12:31.629Z,10.00
2019-05-20T06:15:00.067Z,10.43
2019-05-20T06:17:28.885Z,10.20
2019-05-20T06:19:57.347Z,10.10
2019-05-20T06:22:25.839Z,10.13
2019-05-20T06:24:54.312Z,10.20
2019-05-20T06:27:22.759Z,10.67
2019-05-20T06:29:51.224Z,10.60
2019-05-20T06:32:19.767Z,10.53
2019-05-20T06:34:48.463Z,10.67
2019-05-20T06:37:21.448Z,10.40
2019-05-20T06:39:51.330Z,10.07
2019-05-20T06:42:22.524Z,9.37
2019-05-20T06:44:53.955Z,10.50
2019-05-20T06:47:21.499Z,9.73
2019-05-20T06:49:49.962Z,10.30
2019-05-20T06:52:34.421Z,10.70
2019-05-20T06:54:48.583Z,10.03
2019-05-20T06:57:17.357Z,10.20
2019-05-20T06:59:46.078Z,10.50
2019-05-20T07:02:14.519Z,11.07
2019-05-20T07:05:05.652Z,10.80
2019-05-20T07:07:34.119Z,9.90
2019-05-20T07:10:02.661Z,12.07
2019-05-20T07:12:40.581Z,11.30
2019-05-20T07:15:01.279Z,11.87
2019-05-20T07:17:29.706Z,11.80
2019-05-20T07:19:58.461Z,11.97
2019-05-20T07:22:26.880Z,11.97
2019-05-20T07:28:24.324Z,12.27
2019-05-20T07:30:58.579Z,12.47
2019-05-20T07:33:26.990Z,10.97
2019-05-20T07:35:55.422Z,11.83
2019-05-20T07:38:23.836Z,11.00
2019-05-20T07:40:52.256Z,11.67
2019-05-20T07:43:20.679Z,11.60
2019-05-20T07:45:49.467Z,11.97
2019-05-20T07:48:18.874Z,12.13
2019-05-20T07:50:49.175Z,12.53
2019-05-20T07:53:18.333Z,12.10
2019-05-20T07:55:52.585Z,12.67
2019-05-20T07:58:24.492Z,12.53
2019-05-20T08:00:52.990Z,11.80
2019-05-20T08:03:21.871Z,11.50
2019-05-20T08:05:51.877Z,11.63
2019-05-20T08:08:20.391Z,12.57
2019-05-20T08:10:49.079Z,12.43
2019-05-20T08:13:17.557Z,12.70
2019-05-20T08:15:46.331Z,11.37
2019-05-20T08:18:14.778Z,11.67
2019-05-20T08:20:43.688Z,12.23
2019-05-20T08:23:21.214Z,12.07
2019-05-20T08:25:49.689Z,12.43
2019-05-20T08:28:18.187Z,11.97
2019-05-20T08:30:46.653Z,11.77
2019-05-20T08:33:15.083Z,10.93
2019-05-20T08:35:43.683Z,10.53
2019-05-20T08:38:12.154Z,11.97
2019-05-20T08:40:42.186Z,11.20
2019-05-20T08:43:11.084Z,10.97
2019-05-20T08:45:39.556Z,10.70
2019-05-20T08:48:08.419Z,12.30
2019-05-20T08:50:37.211Z,11.00
2019-05-20T08:53:05.991Z,11.53
2019-05-20T08:55:34.454Z,11.73
2019-05-20T08:58:03.297Z,11.23
2019-05-20T09:00:31.838Z,11.93
2019-05-20T09:03:00.357Z,11.13
2019-05-20T09:05:29.239Z,10.50
2019-05-20T09:08:03.102Z,10.73
2019-05-20T09:10:27.868Z,11.60
2019-05-20T09:12:56.318Z,10.70
2019-05-20T09:15:25.087Z,11.27
2019-05-20T09:17:53.670Z,10.53
2019-05-20T09:23:50.929Z,11.53
2019-05-20T09:26:19.357Z,11.80
2019-05-20T09:28:47.766Z,12.20
2019-05-20T09:31:16.374Z,11.97
2019-05-20T09:33:44.856Z,11.67
2019-05-20T09:36:13.743Z,11.63
2019-05-20T09:38:42.178Z,11.33
2019-05-20T09:41:11.010Z,10.63
2019-05-20T09:43:39.441Z,10.67
2019-05-20T09:46:09.114Z,10.03
2019-05-20T09:48:44.487Z,9.90
2019-05-20T09:51:12.938Z,10.80
2019-05-20T09:53:41.370Z,9.27
2019-05-20T09:56:11.769Z,10.03
2019-05-20T09:58:46.276Z,9.70
2019-05-20T10:01:27.563Z,9.50
2019-05-20T10:03:59.171Z,9.70
2019-05-20T10:06:49.750Z,9.37
2019-05-20T10:09:18.203Z,10.20
2019-05-20T10:11:46.645Z,11.00
2019-05-20T10:14:16.163Z,11.87
2019-05-20T10:16:44.987Z,12.00
2019-05-20T10:19:14.462Z,12.40
2019-05-20T10:21:43.206Z,12.70
2019-05-20T10:24:11.688Z,12.73
2019-05-20T10:26:40.157Z,12.53
2019-05-20T10:29:10.838Z,13.07
2019-05-20T10:31:39.310Z,12.20
2019-05-20T10:34:07.760Z,13.93
2019-05-20T10:36:36.222Z,12.03
2019-05-20T10:39:07.927Z,13.07
2019-05-20T10:41:36.829Z,12.77
2019-05-20T10:44:05.310Z,13.13
2019-05-20T10:46:33.870Z,13.70
2019-05-20T10:49:02.814Z,13.00
2019-05-20T10:51:31.586Z,13.30
2019-05-20T10:54:00.043Z,12.97
2019-05-20T10:56:28.486Z,12.43
2019-05-20T10:58:56.983Z,12.87
2019-05-20T11:01:25.503Z,12.97
2019-05-20T11:03:54.425Z,13.53
2019-05-20T11:06:22.900Z,13.43
2019-05-20T11:08:51.353Z,12.77
2019-05-20T11:11:19.787Z,13.10
2019-05-20T11:13:48.238Z,13.83
2019-05-20T11:16:16.670Z,13.97
2019-05-20T11:18:45.121Z,13.83
2019-05-20T11:21:13.587Z,14.57
2019-05-20T11:23:43.152Z,14.60
2019-05-20T11:26:11.873Z,14.83
2019-05-20T11:28:40.957Z,14.93
2019-05-20T11:31:09.450Z,14.30
2019-05-20T11:33:40.617Z,14.70
2019-05-20T11:36:09.163Z,14.07
2019-05-20T11:38:37.958Z,14.57
2019-05-20T11:41:06.484Z,13.57
2019-05-20T11:43:34.956Z,12.73
2019-05-20T11:46:03.831Z,13.27
2019-05-20T11:48:32.375Z,12.93
2019-05-20T11:51:00.838Z,13.03
2019-05-20T11:53:29.285Z,12.50
2019-05-20T11:55:57.735Z,13.67
2019-05-20T11:58:26.222Z,13.13
2019-05-20T12:01:00.461Z,13.67
2019-05-20T12:03:28.942Z,12.17
2019-05-20T12:05:57.425Z,12.97
2019-05-20T12:08:25.931Z,12.83
2019-05-20T12:10:54.371Z,12.70
2019-05-20T12:13:22.833Z,12.73
2019-05-20T12:15:51.274Z,13.90
2019-05-20T12:18:19.742Z,13.40
2019-05-20T12:20:48.251Z,12.43
2019-05-20T12:23:16.698Z,12.77
2019-05-20T12:25:45.138Z,12.83
2019-05-20T12:28:13.635Z,11.43
2019-05-20T12:30:42.101Z,11.80
2019-05-20T12:33:18.757Z,12.93
2019-05-20T12:35:41.510Z,12.67
2019-05-20T12:38:09.970Z,12.30
2019-05-20T12:40:38.467Z,11.70
2019-05-20T12:43:08.588Z,12.30
2019-05-20T12:45:37.078Z,13.70
2019-05-20T12:48:05.538Z,13.63
2019-05-20T12:50:33.986Z,13.43
2019-05-20T12:53:02.808Z,13.53
2019-05-20T12:55:33.200Z,13.33
2019-05-20T12:58:01.667Z,13.13
2019-05-20T13:00:30.155Z,14.43
2019-05-20T13:02:58.677Z,13.97
2019-05-20T13:05:27.142Z,14.77
2019-05-20T13:07:55.598Z,14.83
2019-05-20T13:10:29.680Z,14.50
2019-05-20T13:12:54.271Z,13.50
2019-05-20T13:15:22.924Z,14.80
2019-05-20T13:17:52.931Z,16.17
2019-05-20T13:20:22.124Z,14.77
2019-05-20T13:22:50.977Z,14.60
2019-05-20T13:25:19.802Z,14.37
2019-05-20T13:27:48.234Z,16.07
2019-05-20T13:30:18.231Z,16.13
2019-05-20T13:32:46.702Z,15.90
2019-05-20T13:35:15.657Z,16.80
2019-05-20T13:37:47.368Z,16.97
2019-05-20T13:40:16.931Z,17.50
2019-05-20T13:42:45.439Z,17.43
2019-05-20T13:45:14.364Z,17.03
2019-05-20T13:47:42.858Z,17.33
2019-05-20T13:50:11.642Z,17.40
2019-05-20T13:52:40.226Z,17.43
2019-05-20T13:55:09.335Z,17.73
2019-05-20T13:57:38.453Z,19.47
2019-05-20T14:00:09.073Z,19.07
2019-05-20T14:02:37.589Z,18.23
2019-05-20T14:05:06.752Z,19.70
2019-05-20T14:07:35.266Z,18.93
2019-05-20T14:10:06.296Z,20.30
2019-05-20T14:12:34.741Z,20.73
2019-05-20T14:15:03.807Z,20.63
2019-05-20T14:17:32.630Z,20.40
2019-05-20T14:20:01.165Z,19.23
2019-05-20T14:22:29.581Z,19.23
2019-05-20T14:24:58.092Z,20.63
2019-05-20T14:27:26.559Z,20.17
2019-05-20T14:29:55.027Z,20.20
2019-05-20T14:32:23.475Z,21.20
2019-05-20T14:34:51.929Z,21.57
2019-05-20T14:37:20.387Z,21.43
2019-05-20T14:39:49.270Z,20.20
2019-05-20T14:42:18.180Z,19.43
2019-05-20T14:44:46.661Z,18.80
2019-05-20T14:47:15.101Z,18.53
2019-05-20T14:49:43.517Z,17.90
2019-05-20T14:52:12.230Z,18.23
2019-05-20T14:54:40.684Z,16.73
2019-05-20T14:57:09.242Z,17.03
2019-05-20T14:59:37.697Z,16.50
2019-05-20T15:02:06.213Z,15.00
2019-05-20T15:04:34.661Z,15.50
2019-05-20T15:07:03.102Z,15.20
2019-05-20T15:09:31.538Z,16.33
2019-05-20T15:12:00.415Z,15.87
2019-05-20T15:14:28.860Z,16.50
2019-05-20T15:16:57.325Z,17.37
2019-05-20T15:19:25.749Z,17.73
2019-05-20T15:21:54.219Z,18.93
2019-05-20T15:24:22.654Z,18.80
2019-05-20T15:26:51.168Z,19.07
2019-05-20T15:29:27.890Z,19.03
2019-05-20T15:31:49.871Z,17.80
2019-05-20T15:34:18.306Z,18.90
2019-05-20T15:36:47.754Z,18.67
2019-05-20T15:39:16.255Z,17.87
2019-05-20T15:41:44.813Z,18.27
2019-05-20T15:44:24.589Z,18.83
2019-05-20T15:46:53.040Z,18.73
2019-05-20T15:49:22.811Z,18.30
2019-05-20T15:51:51.320Z,17.87
2019-05-20T15:54:25.838Z,17.77
2019-05-20T15:56:54.510Z,19.23
2019-05-20T15:59:44.420Z,18.70
2019-05-20T16:01:59.097Z,17.67
2019-05-20T16:04:27.594Z,18.10
2019-05-20T16:06:59.954Z,17.80
2019-05-20T16:09:26.243Z,17.90
2019-05-20T16:11:54.694Z,18.70
2019-05-20T16:14:23.141Z,17.47
2019-05-20T16:16:51.605Z,17.43
2019-05-20T16:19:20.074Z,17.60
2019-05-20T16:21:48.504Z,17.67
2019-05-20T16:24:16.989Z,18.23
2019-05-20T16:26:45.509Z,18.10
2019-05-20T16:29:14.025Z,18.40
2019-05-20T16:31:42.487Z,19.17
2019-05-20T16:34:10.940Z,18.87
2019-05-20T16:36:39.391Z,20.80
2019-05-20T16:39:07.982Z,19.03
2019-05-20T16:41:36.471Z,19.63
2019-05-20T16:44:04.885Z,19.70
2019-05-20T16:46:50.844Z,20.87
2019-05-20T16:49:19.303Z,20.30
2019-05-20T16:51:47.724Z,19.23
2019-05-20T16:54:16.164Z,19.70
2019-05-20T16:56:44.636Z,19.57
2019-05-20T16:59:13.094Z,18.13
2019-05-20T17:01:46.278Z,18.57
2019-05-20T17:04:11.730Z,19.07
2019-05-20T17:06:40.166Z,19.73
2019-05-20T17:09:08.630Z,19.73
2019-05-20T17:11:37.107Z,18.83
2019-05-20T17:14:05.571Z,19.73
2019-05-20T17:16:34.014Z,19.07
2019-05-20T17:19:02.477Z,19.63
2019-05-20T17:21:31.129Z,18.20
2019-05-20T17:23:59.847Z,19.37
2019-05-20T17:26:28.800Z,18.43
2019-05-20T17:28:57.571Z,15.97
2019-05-20T17:31:26.857Z,16.20
2019-05-20T17:33:56.053Z,16.70
2019-05-20T17:36:24.571Z,15.83
2019-05-20T17:38:53.054Z,15.50
2019-05-20T17:41:21.664Z,14.37
2019-05-20T17:43:50.162Z,15.17
2019-05-20T17:46:18.671Z,14.47
2019-05-20T17:48:47.146Z,14.27
2019-05-20T17:51:18.716Z,14.50
2019-05-20T17:53:47.270Z,14.83
2019-05-20T17:56:17.006Z,13.80
2019-05-20T17:58:45.852Z,14.70
2019-05-20T18:01:16.018Z,14.27
2019-05-20T18:03:44.816Z,13.10
2019-05-20T18:06:13.558Z,14.47
2019-05-20T18:08:43.647Z,16.93
2019-05-20T18:11:12.359Z,17.03
2019-05-20T18:13:40.836Z,18.87
2019-05-20T18:16:09.655Z,17.70
2019-05-20T18:18:38.104Z,20.03
2019-05-20T18:21:06.917Z,19.67
2019-05-20T18:23:35.822Z,21.00
2019-05-20T18:26:04.241Z,20.67
2019-05-20T18:28:32.987Z,20.13
2019-05-20T18:31:01.489Z,20.57
2019-05-20T18:33:30.350Z,20.90
2019-05-20T18:35:59.126Z,20.77
2019-05-20T18:38:27.651Z,22.73
2019-05-20T18:40:56.099Z,23.53
2019-05-20T18:43:24.570Z,23.17
2019-05-20T18:45:53.029Z,21.63
2019-05-20T18:48:21.470Z,23.70
2019-05-20T18:50:50.309Z,24.27
2019-05-20T18:53:18.751Z,23.80
2019-05-20T18:55:47.204Z,25.17
2019-05-20T18:58:15.644Z,25.80
2019-05-20T19:00:44.171Z,23.03
2019-05-20T19:03:12.708Z,24.40
2019-05-20T19:05:41.168Z,21.80
2019-05-20T19:08:09.823Z,23.70
2019-05-20T19:10:38.643Z,21.20
2019-05-20T19:13:07.447Z,22.90
2019-05-20T19:15:35.914Z,24.73
2019-05-20T19:18:04.495Z,27.83
2019-05-20T19:20:32.942Z,27.07
2019-05-20T19:23:01.460Z,28.90
2019-05-20T19:25:37.681Z,29.77
2019-05-20T19:28:01.007Z,29.63
2019-05-20T19:30:29.531Z,29.30
2019-05-20T19:32:58.243Z,30.03
2019-05-20T19:35:26.732Z,31.30
2019-05-20T19:37:55.172Z,33.63
2019-05-20T19:40:24.001Z,32.47
2019-05-20T19:42:52.484Z,32.87
2019-05-20T19:45:20.947Z,31.87
2019-05-20T19:47:49.391Z,32.40
2019-05-20T19:50:19.989Z,33.60
2019-05-20T19:52:48.639Z,32.77
2019-05-20T19:55:19.057Z,33.53
2019-05-20T19:57:48.180Z,34.90
2019-05-20T20:00:17.515Z,32.80
2019-05-20T20:02:45.953Z,33.70
2019-05-20T20:05:14.834Z,35.00
2019-05-20T20:07:43.309Z,35.23
2019-05-20T20:10:12.199Z,34.80
2019-05-20T20:12:40.988Z,32.63
2019-05-20T20:15:17.590Z,29.73
2019-05-20T20:17:46.202Z,31.03
2019-05-20T20:20:15.687Z,26.13
2019-05-20T20:22:44.560Z,24.67
2019-05-20T20:25:13.626Z,24.50
2019-05-20T20:27:42.437Z,17.53
2019-05-20T20:30:11.430Z,17.90
2019-05-20T20:32:39.859Z,18.43
2019-05-20T20:35:09.028Z,19.73
2019-05-20T20:37:37.570Z,18.67
2019-05-20T20:40:06.786Z,18.60
2019-05-20T20:42:35.233Z,19.23
2019-05-20T20:45:04.644Z,20.07
2019-05-20T20:47:41.248Z,21.10
2019-05-20T20:50:04.687Z,21.13
2019-05-20T20:52:33.144Z,22.13
2019-05-20T20:55:01.574Z,22.43
2019-05-20T20:57:30.416Z,22.63
2019-05-20T20:59:59.214Z,22.27
2019-05-20T21:02:27.983Z,22.67
2019-05-20T21:04:56.674Z,22.60
2019-05-20T21:07:25.118Z,23.03
2019-05-20T21:09:53.584Z,21.23
2019-05-20T21:12:22.096Z,22.80
2019-05-20T21:14:50.894Z,23.10
2019-05-20T21:17:19.345Z,22.03
2019-05-20T21:19:47.802Z,21.00
2019-05-20T21:22:16.254Z,20.47
2019-05-20T21:24:44.742Z,21.07
2019-05-20T21:27:13.499Z,21.33
2019-05-20T21:29:42.229Z,20.73
2019-05-20T21:32:10.704Z,19.80
2019-05-20T21:34:39.214Z,19.40
2019-05-20T21:37:07.707Z,18.73
2019-05-20T21:39:36.435Z,18.83
2019-05-20T21:42:04.893Z,19.13
2019-05-20T21:44:33.786Z,17.33
2019-05-20T21:47:02.575Z,16.97
2019-05-20T21:49:31.017Z,16.63
2019-05-20T21:51:59.480Z,17.27
2019-05-20T21:54:28.308Z,17.40
2019-05-20T21:56:56.758Z,15.47
2019-05-20T21:59:25.233Z,16.33
2019-05-20T22:01:53.686Z,16.53
2019-05-20T22:04:22.150Z,16.77
2019-05-20T22:06:50.593Z,16.83
2019-05-20T22:09:19.058Z,18.33
2019-05-20T22:11:47.504Z,18.70
2019-05-20T22:14:15.977Z,18.73
2019-05-20T22:16:45.146Z,20.27
2019-05-20T22:19:14.048Z,22.30
2019-05-20T22:21:50.128Z,23.10
2019-05-20T22:24:18.576Z,23.37
2019-05-20T22:26:47.355Z,24.70
2019-05-20T22:29:15.787Z,24.87
2019-05-20T22:31:45.088Z,25.90
2019-05-20T22:34:13.539Z,26.00
2019-05-20T22:36:42.411Z,26.67
2019-05-20T22:39:11.207Z,28.13
2019-05-20T22:41:39.635Z,26.30
2019-05-20T22:44:08.106Z,27.63
2019-05-20T22:46:36.558Z,29.20
2019-05-20T22:49:05.059Z,26.43
2019-05-20T22:51:33.825Z,26.10
2019-05-20T22:54:02.451Z,26.67
2019-05-20T22:56:30.972Z,27.07
2019-05-20T22:58:59.454Z,26.57
2019-05-20T23:01:28.243Z,27.27
2019-05-20T23:03:56.877Z,27.53
2019-05-20T23:06:25.711Z,27.23
2019-05-20T23:08:54.487Z,27.67
2019-05-20T23:11:22.937Z,27.03
2019-05-20T23:13:51.747Z,26.83
2019-05-20T23:16:20.196Z,27.93
2019-05-20T23:18:48.674Z,28.00
2019-05-20T23:21:17.109Z,26.33
2019-05-20T23:23:45.893Z,24.77
2019-05-20T23:26:14.332Z,26.47
2019-05-20T23:28:42.820Z,24.90
2019-05-20T23:31:11.265Z,24.27
2019-05-20T23:33:40.012Z,26.33
2019-05-20T23:36:08.800Z,26.53
2019-05-20T23:38:37.258Z,26.47
2019-05-20T23:41:05.687Z,27.03
2019-05-20T23:43:34.156Z,28.30
2019-05-20T23:46:02.908Z,27.37
2019-05-20T23:48:31.397Z,28.50
2019-05-20T23:51:00.181Z,28.50
2019-05-20T23:53:28.638Z,27.97
2019-05-20T23:55:57.551Z,27.77
2019-05-20T23:58:26.327Z,28.23
